CFG3419 LBSF-LBWN
Flight info
| Callsign | CFG3419 |
|---|---|
| Flight time | 0h 38m |
| Altitude | 27000 |
| Route | GOL3T/27 GOL N605 TOTKA |
| Aircraft | A20N/M-SDE2E3FGHIRWXY/LB1 |
Departure
| Time | 2026-05-06 18:35 |
|---|---|
| Airport | Sofia Airport (LBSF) |
Arrival
| Time | 2026-05-06 19:14 |
|---|---|
| Airport | Varna Airport (LBWN) |
| Time | Latitude | Longitude | Altitude | Speed | Heading |
|---|---|---|---|---|---|
| 2026-05-06 17:59 | 42.69066 | 23.41301 | 1761 ft | 0 kts | 72° |
| 2026-05-06 18:14 | 42.69064 | 23.41290 | 1761 ft | 2 kts | 72° |
| 2026-05-06 18:14 | 42.69059 | 23.41271 | 1762 ft | 2 kts | 72° |
| 2026-05-06 18:14 | 42.69055 | 23.41255 | 1762 ft | 0 kts | 72° |
| 2026-05-06 18:15 | 42.69051 | 23.41240 | 1763 ft | 2 kts | 45° |
| 2026-05-06 18:15 | 42.69038 | 23.41229 | 1763 ft | 2 kts | 13° |
| 2026-05-06 18:15 | 42.69025 | 23.41228 | 1763 ft | 0 kts | 346° |
| 2026-05-06 18:15 | 42.69019 | 23.41231 | 1763 ft | 1 kts | 341° |
| 2026-05-06 18:16 | 42.69018 | 23.41232 | 1763 ft | 0 kts | 341° |
| 2026-05-06 18:19 | 42.69021 | 23.41230 | 1763 ft | 1 kts | 341° |
| 2026-05-06 18:19 | 42.69041 | 23.41221 | 1763 ft | 4 kts | 341° |
| 2026-05-06 18:19 | 42.69080 | 23.41204 | 1764 ft | 7 kts | 342° |
| 2026-05-06 18:19 | 42.69126 | 23.41161 | 1765 ft | 9 kts | 289° |
| 2026-05-06 18:20 | 42.69116 | 23.41070 | 1767 ft | 10 kts | 251° |
| 2026-05-06 18:20 | 42.69107 | 23.41032 | 1768 ft | 0 kts | 252° |
| 2026-05-06 18:20 | 42.69107 | 23.41031 | 1768 ft | 0 kts | 252° |
| 2026-05-06 18:20 | 42.69106 | 23.41028 | 1768 ft | 0 kts | 251° |
| 2026-05-06 18:21 | 42.69105 | 23.41025 | 1769 ft | 0 kts | 251° |
| 2026-05-06 18:21 | 42.69098 | 23.40995 | 1770 ft | 5 kts | 252° |
| 2026-05-06 18:21 | 42.69074 | 23.40898 | 1770 ft | 15 kts | 251° |
| 2026-05-06 18:22 | 42.69054 | 23.40750 | 1770 ft | 15 kts | 281° |
| 2026-05-06 18:22 | 42.69085 | 23.40605 | 1771 ft | 15 kts | 285° |
| 2026-05-06 18:22 | 42.69112 | 23.40465 | 1772 ft | 14 kts | 285° |
| 2026-05-06 18:22 | 42.69145 | 23.40328 | 1771 ft | 15 kts | 285° |
| 2026-05-06 18:23 | 42.69175 | 23.40186 | 1771 ft | 15 kts | 287° |
| 2026-05-06 18:23 | 42.69200 | 23.40082 | 1769 ft | 2 kts | 290° |
| 2026-05-06 18:23 | 42.69201 | 23.40079 | 1769 ft | 0 kts | 289° |
| 2026-05-06 18:24 | 42.69206 | 23.40063 | 1768 ft | 6 kts | 293° |
| 2026-05-06 18:24 | 42.69235 | 23.39976 | 1766 ft | 8 kts | 292° |
| 2026-05-06 18:24 | 42.69250 | 23.39919 | 1766 ft | 3 kts | 289° |
| 2026-05-06 18:25 | 42.69255 | 23.39900 | 1766 ft | 2 kts | 287° |
| 2026-05-06 18:25 | 42.69274 | 23.39818 | 1765 ft | 15 kts | 286° |
| 2026-05-06 18:25 | 42.69310 | 23.39649 | 1762 ft | 14 kts | 290° |
| 2026-05-06 18:25 | 42.69346 | 23.39580 | 1763 ft | 3 kts | 330° |
| 2026-05-06 18:26 | 42.69349 | 23.39577 | 1763 ft | 0 kts | 333° |
| 2026-05-06 18:26 | 42.69446 | 23.39568 | 1761 ft | 13 kts | 26° |
| 2026-05-06 18:26 | 42.69539 | 23.39587 | 1758 ft | 13 kts | 14° |
| 2026-05-06 18:26 | 42.69579 | 23.39687 | 1758 ft | 10 kts | 93° |
| 2026-05-06 18:27 | 42.69574 | 23.39773 | 1759 ft | 8 kts | 94° |
| 2026-05-06 18:27 | 42.69568 | 23.39883 | 1759 ft | 14 kts | 94° |
| 2026-05-06 18:27 | 42.69557 | 23.40052 | 1760 ft | 21 kts | 95° |
| 2026-05-06 18:27 | 42.69544 | 23.40276 | 1760 ft | 26 kts | 95° |
| 2026-05-06 18:28 | 42.69531 | 23.40496 | 1763 ft | 18 kts | 95° |
| 2026-05-06 18:28 | 42.69518 | 23.40688 | 1761 ft | 22 kts | 94° |
| 2026-05-06 18:28 | 42.69505 | 23.40909 | 1760 ft | 24 kts | 95° |
| 2026-05-06 18:28 | 42.69495 | 23.41087 | 1760 ft | 15 kts | 91° |
| 2026-05-06 18:29 | 42.69487 | 23.41207 | 1760 ft | 15 kts | 94° |
| 2026-05-06 18:29 | 42.69478 | 23.41372 | 1760 ft | 19 kts | 95° |
| 2026-05-06 18:29 | 42.69466 | 23.41556 | 1757 ft | 13 kts | 96° |
| 2026-05-06 18:29 | 42.69458 | 23.41684 | 1757 ft | 13 kts | 95° |
| 2026-05-06 18:30 | 42.69447 | 23.41860 | 1756 ft | 21 kts | 94° |
| 2026-05-06 18:30 | 42.69436 | 23.42055 | 1757 ft | 19 kts | 95° |
| 2026-05-06 18:30 | 42.69428 | 23.42187 | 1757 ft | 12 kts | 95° |
| 2026-05-06 18:30 | 42.69420 | 23.42304 | 1757 ft | 13 kts | 95° |
| 2026-05-06 18:31 | 42.69413 | 23.42456 | 1756 ft | 20 kts | 93° |
| 2026-05-06 18:31 | 42.69396 | 23.42668 | 1753 ft | 23 kts | 98° |
| 2026-05-06 18:31 | 42.69386 | 23.42876 | 1752 ft | 15 kts | 97° |
| 2026-05-06 18:31 | 42.69381 | 23.42973 | 1753 ft | 11 kts | 94° |
| 2026-05-06 18:32 | 42.69373 | 23.43114 | 1755 ft | 17 kts | 94° |
| 2026-05-06 18:32 | 42.69361 | 23.43281 | 1757 ft | 17 kts | 95° |
| 2026-05-06 18:32 | 42.69352 | 23.43438 | 1759 ft | 16 kts | 94° |
| 2026-05-06 18:32 | 42.69343 | 23.43588 | 1760 ft | 16 kts | 94° |
| 2026-05-06 18:33 | 42.69332 | 23.43747 | 1760 ft | 17 kts | 96° |
| 2026-05-06 18:33 | 42.69335 | 23.43906 | 1760 ft | 16 kts | 61° |
| 2026-05-06 18:33 | 42.69425 | 23.43947 | 1760 ft | 12 kts | 5° |
| 2026-05-06 18:33 | 42.69504 | 23.43927 | 1760 ft | 11 kts | 314° |
| 2026-05-06 18:34 | 42.69519 | 23.43827 | 1760 ft | 8 kts | 272° |
| 2026-05-06 18:34 | 42.69531 | 23.43695 | 1760 ft | 38 kts | 278° |
| 2026-05-06 18:34 | 42.69569 | 23.42977 | 1749 ft | 110 kts | 273° |
| 2026-05-06 18:34 | 42.69650 | 23.41663 | 1755 ft | 167 kts | 273° |
| 2026-05-06 18:35 | 42.69749 | 23.40032 | 2188 ft | 178 kts | 272° |
| 2026-05-06 18:35 | 42.69853 | 23.38334 | 2780 ft | 186 kts | 276° |
| 2026-05-06 18:35 | 42.70346 | 23.36719 | 3423 ft | 193 kts | 309° |
| 2026-05-06 18:35 | 42.71301 | 23.35443 | 4044 ft | 197 kts | 319° |
| 2026-05-06 18:36 | 42.72554 | 23.34608 | 4457 ft | 212 kts | 348° |
| 2026-05-06 18:36 | 42.74060 | 23.34396 | 4848 ft | 231 kts | 357° |
| 2026-05-06 18:36 | 42.75747 | 23.34286 | 5272 ft | 252 kts | 356° |
| 2026-05-06 18:36 | 42.77548 | 23.34118 | 5770 ft | 270 kts | 354° |
| 2026-05-06 18:37 | 42.79470 | 23.33870 | 6396 ft | 282 kts | 353° |
| 2026-05-06 18:37 | 42.81416 | 23.33578 | 7261 ft | 286 kts | 352° |
| 2026-05-06 18:37 | 42.83386 | 23.33266 | 8159 ft | 288 kts | 352° |
| 2026-05-06 18:37 | 42.85350 | 23.32990 | 9025 ft | 291 kts | 358° |
| 2026-05-06 18:38 | 42.87323 | 23.33547 | 9854 ft | 295 kts | 26° |
| 2026-05-06 18:38 | 42.88919 | 23.35259 | 10661 ft | 299 kts | 51° |
| 2026-05-06 18:38 | 42.89873 | 23.37814 | 11189 ft | 313 kts | 72° |
| 2026-05-06 18:38 | 42.90517 | 23.40717 | 11633 ft | 330 kts | 72° |
| 2026-05-06 18:39 | 42.91201 | 23.43796 | 12053 ft | 347 kts | 72° |
| 2026-05-06 18:39 | 42.91925 | 23.46970 | 12740 ft | 354 kts | 71° |
| 2026-05-06 18:39 | 42.92665 | 23.50159 | 13551 ft | 356 kts | 71° |
| 2026-05-06 18:40 | 42.94181 | 23.56612 | 15025 ft | 364 kts | 71° |
| 2026-05-06 18:40 | 42.94957 | 23.59897 | 15746 ft | 367 kts | 71° |
| 2026-05-06 18:40 | 42.95741 | 23.63215 | 16440 ft | 371 kts | 70° |
| 2026-05-06 18:40 | 42.96532 | 23.66569 | 17122 ft | 375 kts | 71° |
| 2026-05-06 18:41 | 42.97332 | 23.69976 | 17789 ft | 379 kts | 71° |
| 2026-05-06 18:41 | 42.98136 | 23.73407 | 18437 ft | 383 kts | 71° |
| 2026-05-06 18:41 | 42.98952 | 23.76890 | 19056 ft | 387 kts | 71° |
| 2026-05-06 18:41 | 42.99773 | 23.80388 | 19649 ft | 391 kts | 70° |
| 2026-05-06 18:42 | 43.00607 | 23.83949 | 20243 ft | 396 kts | 70° |
| 2026-05-06 18:42 | 43.01443 | 23.87522 | 20807 ft | 400 kts | 70° |
| 2026-05-06 18:42 | 43.02293 | 23.91151 | 21377 ft | 404 kts | 70° |
| 2026-05-06 18:42 | 43.03138 | 23.94769 | 21930 ft | 408 kts | 70° |
| 2026-05-06 18:43 | 43.04010 | 23.98502 | 22488 ft | 411 kts | 70° |
| 2026-05-06 18:43 | 43.04869 | 24.02189 | 22927 ft | 415 kts | 70° |
| 2026-05-06 18:43 | 43.05753 | 24.05988 | 23451 ft | 419 kts | 70° |
| 2026-05-06 18:43 | 43.06634 | 24.09783 | 24005 ft | 422 kts | 70° |
| 2026-05-06 18:44 | 43.07513 | 24.13582 | 24516 ft | 425 kts | 70° |
| 2026-05-06 18:44 | 43.08394 | 24.17431 | 25002 ft | 429 kts | 71° |
| 2026-05-06 18:44 | 43.09116 | 24.21410 | 25465 ft | 434 kts | 76° |
| 2026-05-06 18:44 | 43.09583 | 24.25475 | 26030 ft | 436 kts | 81° |
| 2026-05-06 18:45 | 43.09824 | 24.29597 | 26635 ft | 435 kts | 83° |
| 2026-05-06 18:45 | 43.10004 | 24.33745 | 26965 ft | 437 kts | 83° |
| 2026-05-06 18:45 | 43.10186 | 24.37898 | 27017 ft | 438 kts | 83° |
| 2026-05-06 18:45 | 43.10373 | 24.42048 | 27021 ft | 438 kts | 83° |
| 2026-05-06 18:46 | 43.10557 | 24.46152 | 27024 ft | 438 kts | 83° |
| 2026-05-06 18:46 | 43.10742 | 24.50331 | 27029 ft | 438 kts | 83° |
| 2026-05-06 18:46 | 43.10922 | 24.54441 | 27031 ft | 438 kts | 83° |
| 2026-05-06 18:46 | 43.11102 | 24.58606 | 27033 ft | 437 kts | 83° |
| 2026-05-06 18:47 | 43.11278 | 24.62744 | 27034 ft | 437 kts | 83° |
| 2026-05-06 18:47 | 43.11452 | 24.66859 | 27035 ft | 437 kts | 84° |
| 2026-05-06 18:47 | 43.11625 | 24.71030 | 27043 ft | 437 kts | 84° |
| 2026-05-06 18:47 | 43.11794 | 24.75140 | 27043 ft | 437 kts | 84° |
| 2026-05-06 18:48 | 43.11964 | 24.79306 | 27043 ft | 437 kts | 84° |
| 2026-05-06 18:48 | 43.12131 | 24.83408 | 27040 ft | 437 kts | 84° |
| 2026-05-06 18:48 | 43.12299 | 24.87575 | 27041 ft | 437 kts | 84° |
| 2026-05-06 18:48 | 43.12463 | 24.91693 | 27043 ft | 437 kts | 83° |
| 2026-05-06 18:49 | 43.12629 | 24.95863 | 27040 ft | 437 kts | 83° |
| 2026-05-06 18:49 | 43.12790 | 25.00016 | 27037 ft | 437 kts | 83° |
| 2026-05-06 18:49 | 43.12947 | 25.04114 | 27035 ft | 437 kts | 83° |
| 2026-05-06 18:49 | 43.13103 | 25.08264 | 27035 ft | 436 kts | 83° |
| 2026-05-06 18:50 | 43.13257 | 25.12409 | 27037 ft | 436 kts | 83° |
| 2026-05-06 18:50 | 43.13408 | 25.16504 | 27036 ft | 436 kts | 83° |
| 2026-05-06 18:50 | 43.13561 | 25.20646 | 27037 ft | 436 kts | 83° |
| 2026-05-06 18:50 | 43.13714 | 25.24841 | 27037 ft | 436 kts | 83° |
| 2026-05-06 18:51 | 43.13863 | 25.28946 | 27036 ft | 436 kts | 83° |
| 2026-05-06 18:51 | 43.14012 | 25.33091 | 27040 ft | 436 kts | 83° |
| 2026-05-06 18:51 | 43.14159 | 25.37212 | 27037 ft | 436 kts | 83° |
| 2026-05-06 18:51 | 43.14306 | 25.41395 | 27037 ft | 436 kts | 83° |
| 2026-05-06 18:52 | 43.14449 | 25.45505 | 27039 ft | 436 kts | 83° |
| 2026-05-06 18:52 | 43.14591 | 25.49645 | 27036 ft | 436 kts | 83° |
| 2026-05-06 18:52 | 43.14733 | 25.53771 | 27035 ft | 435 kts | 83° |
| 2026-05-06 18:52 | 43.14874 | 25.57892 | 26926 ft | 437 kts | 83° |
| 2026-05-06 18:53 | 43.15017 | 25.62085 | 26216 ft | 443 kts | 83° |
| 2026-05-06 18:53 | 43.15157 | 25.66265 | 25413 ft | 445 kts | 84° |
| 2026-05-06 18:53 | 43.15294 | 25.70485 | 24693 ft | 445 kts | 84° |
| 2026-05-06 18:53 | 43.15453 | 25.74654 | 24158 ft | 439 kts | 83° |
| 2026-05-06 18:54 | 43.15638 | 25.78812 | 23690 ft | 433 kts | 83° |
| 2026-05-06 18:54 | 43.15826 | 25.82892 | 23244 ft | 427 kts | 83° |
| 2026-05-06 18:54 | 43.16008 | 25.86873 | 22813 ft | 421 kts | 83° |
| 2026-05-06 18:54 | 43.16187 | 25.90846 | 22376 ft | 415 kts | 83° |
| 2026-05-06 18:55 | 43.16360 | 25.94742 | 21946 ft | 410 kts | 83° |
| 2026-05-06 18:55 | 43.16529 | 25.98590 | 21516 ft | 405 kts | 83° |
| 2026-05-06 18:55 | 43.16695 | 26.02423 | 21077 ft | 400 kts | 83° |
| 2026-05-06 18:55 | 43.16859 | 26.06202 | 20645 ft | 396 kts | 83° |
| 2026-05-06 18:56 | 43.17015 | 26.09931 | 20211 ft | 392 kts | 83° |
| 2026-05-06 18:56 | 43.17171 | 26.13598 | 19782 ft | 388 kts | 83° |
| 2026-05-06 18:56 | 43.17317 | 26.17287 | 19353 ft | 384 kts | 84° |
| 2026-05-06 18:56 | 43.17430 | 26.20869 | 18945 ft | 380 kts | 84° |
| 2026-05-06 18:57 | 43.17540 | 26.24472 | 18533 ft | 376 kts | 85° |
| 2026-05-06 18:57 | 43.17646 | 26.28011 | 18121 ft | 373 kts | 84° |
| 2026-05-06 18:57 | 43.17754 | 26.31556 | 17701 ft | 370 kts | 84° |
| 2026-05-06 18:57 | 43.17860 | 26.35076 | 17277 ft | 367 kts | 84° |
| 2026-05-06 18:58 | 43.17964 | 26.38522 | 16822 ft | 364 kts | 84° |
| 2026-05-06 18:58 | 43.18067 | 26.41966 | 16391 ft | 362 kts | 84° |
| 2026-05-06 18:58 | 43.18167 | 26.45385 | 15942 ft | 360 kts | 84° |
| 2026-05-06 18:58 | 43.18265 | 26.48790 | 15512 ft | 357 kts | 84° |
| 2026-05-06 18:59 | 43.18363 | 26.52186 | 15065 ft | 355 kts | 84° |
| 2026-05-06 18:59 | 43.18459 | 26.55519 | 14630 ft | 352 kts | 84° |
| 2026-05-06 18:59 | 43.18554 | 26.58876 | 14186 ft | 350 kts | 84° |
| 2026-05-06 18:59 | 43.18647 | 26.62183 | 13758 ft | 347 kts | 84° |
| 2026-05-06 19:00 | 43.18740 | 26.65454 | 13321 ft | 345 kts | 85° |
| 2026-05-06 19:00 | 43.18865 | 26.68722 | 12898 ft | 343 kts | 84° |
| 2026-05-06 19:00 | 43.18998 | 26.71960 | 12491 ft | 341 kts | 84° |
| 2026-05-06 19:00 | 43.19132 | 26.75175 | 12040 ft | 339 kts | 84° |
| 2026-05-06 19:01 | 43.19265 | 26.78417 | 11621 ft | 337 kts | 84° |
| 2026-05-06 19:01 | 43.19392 | 26.81579 | 11219 ft | 335 kts | 83° |
| 2026-05-06 19:01 | 43.19518 | 26.84736 | 10784 ft | 333 kts | 83° |
| 2026-05-06 19:01 | 43.19642 | 26.87894 | 10368 ft | 330 kts | 84° |
| 2026-05-06 19:02 | 43.19759 | 26.90969 | 10254 ft | 316 kts | 83° |
| 2026-05-06 19:02 | 43.19868 | 26.93884 | 10186 ft | 302 kts | 83° |
| 2026-05-06 19:02 | 43.19975 | 26.96697 | 10121 ft | 288 kts | 83° |
| 2026-05-06 19:02 | 43.20078 | 26.99396 | 9932 ft | 280 kts | 83° |
| 2026-05-06 19:03 | 43.20182 | 27.02031 | 9597 ft | 279 kts | 83° |
| 2026-05-06 19:03 | 43.20284 | 27.04655 | 9277 ft | 277 kts | 83° |
| 2026-05-06 19:03 | 43.20385 | 27.07291 | 8963 ft | 275 kts | 83° |
| 2026-05-06 19:03 | 43.20509 | 27.09868 | 8634 ft | 272 kts | 77° |
| 2026-05-06 19:04 | 43.21193 | 27.12225 | 8292 ft | 263 kts | 50° |
| 2026-05-06 19:04 | 43.22481 | 27.13908 | 7999 ft | 257 kts | 37° |
| 2026-05-06 19:04 | 43.23887 | 27.15431 | 7699 ft | 255 kts | 36° |
| 2026-05-06 19:04 | 43.25257 | 27.16927 | 7397 ft | 253 kts | 37° |
| 2026-05-06 19:05 | 43.26628 | 27.18439 | 7101 ft | 252 kts | 37° |
| 2026-05-06 19:05 | 43.27849 | 27.20143 | 6772 ft | 254 kts | 57° |
| 2026-05-06 19:05 | 43.28374 | 27.22458 | 6469 ft | 258 kts | 85° |
| 2026-05-06 19:05 | 43.28231 | 27.24912 | 6187 ft | 258 kts | 94° |
| 2026-05-06 19:06 | 43.27998 | 27.27342 | 5903 ft | 257 kts | 95° |
| 2026-05-06 19:06 | 43.27773 | 27.29762 | 5617 ft | 256 kts | 95° |
| 2026-05-06 19:06 | 43.27560 | 27.32163 | 5340 ft | 254 kts | 95° |
| 2026-05-06 19:06 | 43.27352 | 27.34554 | 5062 ft | 253 kts | 95° |
| 2026-05-06 19:07 | 43.27150 | 27.36932 | 4784 ft | 251 kts | 95° |
| 2026-05-06 19:07 | 43.26947 | 27.39326 | 4506 ft | 250 kts | 95° |
| 2026-05-06 19:07 | 43.26741 | 27.41683 | 4240 ft | 248 kts | 95° |
| 2026-05-06 19:07 | 43.26539 | 27.44017 | 4028 ft | 244 kts | 95° |
| 2026-05-06 19:08 | 43.26343 | 27.46257 | 3997 ft | 230 kts | 95° |
| 2026-05-06 19:08 | 43.26182 | 27.48362 | 3947 ft | 223 kts | 93° |
| 2026-05-06 19:08 | 43.26054 | 27.50487 | 3697 ft | 221 kts | 94° |
| 2026-05-06 19:08 | 43.25908 | 27.52548 | 3495 ft | 216 kts | 95° |
| 2026-05-06 19:09 | 43.25742 | 27.54562 | 3309 ft | 210 kts | 96° |
| 2026-05-06 19:09 | 43.25567 | 27.56518 | 3132 ft | 204 kts | 96° |
| 2026-05-06 19:09 | 43.25388 | 27.58428 | 3091 ft | 197 kts | 96° |
| 2026-05-06 19:09 | 43.25216 | 27.60273 | 3101 ft | 198 kts | 96° |
| 2026-05-06 19:10 | 43.25041 | 27.62148 | 2928 ft | 198 kts | 96° |
| 2026-05-06 19:10 | 43.24867 | 27.64025 | 2688 ft | 194 kts | 96° |
| 2026-05-06 19:10 | 43.24706 | 27.65784 | 2474 ft | 180 kts | 97° |
| 2026-05-06 19:10 | 43.24556 | 27.67431 | 2202 ft | 170 kts | 97° |
| 2026-05-06 19:11 | 43.24417 | 27.68972 | 1976 ft | 157 kts | 97° |
| 2026-05-06 19:11 | 43.24285 | 27.70422 | 1745 ft | 147 kts | 98° |
| 2026-05-06 19:11 | 43.24162 | 27.71786 | 1551 ft | 142 kts | 98° |
| 2026-05-06 19:11 | 43.24046 | 27.73072 | 1361 ft | 132 kts | 98° |
| 2026-05-06 19:12 | 43.23934 | 27.74305 | 1201 ft | 131 kts | 99° |
| 2026-05-06 19:12 | 43.23824 | 27.75547 | 1030 ft | 130 kts | 98° |
| 2026-05-06 19:12 | 43.23715 | 27.76785 | 861 ft | 130 kts | 98° |
| 2026-05-06 19:12 | 43.23605 | 27.78007 | 695 ft | 130 kts | 98° |
| 2026-05-06 19:13 | 43.23493 | 27.79235 | 516 ft | 130 kts | 99° |
| 2026-05-06 19:13 | 43.23375 | 27.80463 | 355 ft | 130 kts | 98° |
| 2026-05-06 19:13 | 43.23269 | 27.81673 | 238 ft | 121 kts | 97° |
| 2026-05-06 19:13 | 43.23193 | 27.82568 | 237 ft | 69 kts | 97° |
| 2026-05-06 19:14 | 43.23156 | 27.82969 | 237 ft | 22 kts | 96° |
| 2026-05-06 19:14 | 43.23136 | 27.83179 | 237 ft | 21 kts | 98° |
| 2026-05-06 19:14 | 43.23211 | 27.83293 | 237 ft | 18 kts | 7° |
| 2026-05-06 19:14 | 43.23322 | 27.83311 | 237 ft | 15 kts | 7° |
| 2026-05-06 19:15 | 43.23389 | 27.83274 | 237 ft | 11 kts | 289° |
| 2026-05-06 19:15 | 43.23400 | 27.83168 | 237 ft | 9 kts | 277° |
| 2026-05-06 19:15 | 43.23410 | 27.83068 | 237 ft | 13 kts | 276° |
| 2026-05-06 19:15 | 43.23421 | 27.82945 | 237 ft | 15 kts | 276° |
| 2026-05-06 19:16 | 43.23429 | 27.82858 | 237 ft | 8 kts | 275° |
| 2026-05-06 19:16 | 43.23436 | 27.82768 | 237 ft | 11 kts | 280° |
| 2026-05-06 19:16 | 43.23449 | 27.82657 | 237 ft | 9 kts | 276° |
| 2026-05-06 19:16 | 43.23455 | 27.82572 | 237 ft | 16 kts | 274° |
| 2026-05-06 19:17 | 43.23494 | 27.82509 | 237 ft | 9 kts | 42° |
| 2026-05-06 19:17 | 43.23555 | 27.82556 | 237 ft | 7 kts | 38° |
| 2026-05-06 19:17 | 43.23562 | 27.82615 | 237 ft | 5 kts | 82° |
| 2026-05-06 19:17 | 43.23586 | 27.82608 | 237 ft | 5 kts | 314° |
| 2026-05-06 19:18 | 43.23607 | 27.82583 | 237 ft | 0 kts | 319° |
| 2026-05-06 19:18 | 43.23607 | 27.82582 | 237 ft | 0 kts | 321° |
| 2026-05-06 19:19 | 43.23608 | 27.82581 | 237 ft | 0 kts | 322° |